createdAt,value
2023-02-23T00:02:06.045Z,8.73
2023-02-23T00:04:34.247Z,9.10
2023-02-23T00:07:01.470Z,8.27
2023-02-23T00:09:35.205Z,9.53
2023-02-23T00:12:07.801Z,8.17
2023-02-23T00:14:38.259Z,9.33
2023-02-23T00:17:10.912Z,9.17
2023-02-23T00:19:37.841Z,9.13
2023-02-23T00:22:05.009Z,10.23
2023-02-23T00:24:31.793Z,9.70
2023-02-23T00:26:58.844Z,9.80
2023-02-23T00:29:25.931Z,10.03
2023-02-23T00:31:56.086Z,10.77
2023-02-23T00:34:23.646Z,11.20
2023-02-23T00:36:55.496Z,10.13
2023-02-23T00:39:26.517Z,10.53
2023-02-23T00:41:55.496Z,10.43
2023-02-23T00:44:23.884Z,10.87
2023-02-23T00:46:52.467Z,10.60
2023-02-23T00:49:21.949Z,9.80
2023-02-23T00:51:49.607Z,9.20
2023-02-23T00:54:17.653Z,9.37
2023-02-23T00:56:46.338Z,9.73
2023-02-23T00:59:14.324Z,9.37
2023-02-23T01:01:42.069Z,9.57
2023-02-23T01:04:10.078Z,9.67
2023-02-23T01:06:38.103Z,10.97
2023-02-23T01:09:10.975Z,10.43
2023-02-23T01:11:41.339Z,11.03
2023-02-23T01:14:10.369Z,11.07
2023-02-23T01:16:38.993Z,10.10
2023-02-23T01:19:07.109Z,11.07
2023-02-23T01:21:37.036Z,11.60
2023-02-23T01:24:04.435Z,10.37
2023-02-23T01:26:34.545Z,12.30
2023-02-23T01:29:05.858Z,9.77
2023-02-23T01:31:35.910Z,10.27
2023-02-23T01:34:03.991Z,12.17
2023-02-23T01:36:35.247Z,11.93
2023-02-23T01:39:05.872Z,11.90
2023-02-23T01:41:35.752Z,11.50
2023-02-23T01:44:06.810Z,11.20
2023-02-23T01:46:40.898Z,12.67
2023-02-23T01:49:20.118Z,12.43
2023-02-23T01:51:52.640Z,11.87
2023-02-23T01:54:23.290Z,11.00
2023-02-23T01:56:58.126Z,13.00
2023-02-23T01:59:32.744Z,11.97
2023-02-23T02:01:59.993Z,12.83
2023-02-23T02:04:28.627Z,13.63
2023-02-23T02:07:03.692Z,12.57
2023-02-23T02:09:37.800Z,14.47
2023-02-23T02:12:08.437Z,14.23
2023-02-23T02:14:36.524Z,14.10
2023-02-23T02:17:30.063Z,16.60
2023-02-23T02:20:26.506Z,13.27
2023-02-23T02:23:30.852Z,11.97
2023-02-23T02:26:29.790Z,12.60
2023-02-23T02:29:28.766Z,10.90
2023-02-23T02:32:29.178Z,13.97
2023-02-23T02:35:02.489Z,12.20
2023-02-23T02:37:41.268Z,13.73
2023-02-23T02:40:32.470Z,12.37
2023-02-23T02:43:11.204Z,14.70
2023-02-23T02:46:02.557Z,14.90
2023-02-23T02:48:35.458Z,16.00
2023-02-23T02:51:36.706Z,13.70
2023-02-23T02:54:16.977Z,13.17
2023-02-23T02:56:44.705Z,10.20
2023-02-23T02:59:35.874Z,11.27
2023-02-23T03:02:24.316Z,9.90
2023-02-23T03:05:09.831Z,9.97
2023-02-23T03:08:04.819Z,11.30
2023-02-23T03:11:21.573Z,11.43
2023-02-23T03:14:38.664Z,11.87
2023-02-23T03:17:31.895Z,11.07
2023-02-23T03:20:29.099Z,11.37
2023-02-23T03:23:24.035Z,10.73
2023-02-23T03:26:23.444Z,11.10
2023-02-23T03:29:24.538Z,11.63
2023-02-23T03:32:21.082Z,11.70
2023-02-23T03:35:25.734Z,11.63
2023-02-23T03:38:44.769Z,11.43
2023-02-23T03:41:33.659Z,10.17
2023-02-23T03:44:25.062Z,10.77
2023-02-23T03:47:12.499Z,11.40
2023-02-23T03:50:01.517Z,12.03
2023-02-23T03:52:53.513Z,11.00
2023-02-23T03:55:45.740Z,11.43
2023-02-23T03:58:37.346Z,12.10
2023-02-23T04:01:26.332Z,10.67
2023-02-23T04:04:14.515Z,11.83
2023-02-23T04:07:03.890Z,10.47
2023-02-23T04:09:51.140Z,11.07
2023-02-23T04:12:45.236Z,11.63
2023-02-23T04:15:14.694Z,11.70
2023-02-23T04:17:42.512Z,10.40
2023-02-23T04:20:12.223Z,11.20
2023-02-23T04:22:39.513Z,12.87
2023-02-23T04:25:09.065Z,12.50
2023-02-23T04:27:36.785Z,10.67
2023-02-23T04:30:04.458Z,11.70
2023-02-23T04:32:32.012Z,11.17
2023-02-23T04:34:58.932Z,12.00
2023-02-23T04:37:26.393Z,13.83
2023-02-23T04:39:53.138Z,13.10
2023-02-23T04:42:20.207Z,12.27
2023-02-23T04:44:46.925Z,11.43
2023-02-23T04:47:17.438Z,11.07
2023-02-23T04:49:44.680Z,12.40
2023-02-23T04:52:11.872Z,12.07
2023-02-23T04:54:39.470Z,10.80
2023-02-23T04:57:07.104Z,10.20
2023-02-23T04:59:34.214Z,10.50
2023-02-23T05:02:01.563Z,10.30
2023-02-23T05:04:28.864Z,10.33
2023-02-23T05:06:55.909Z,11.90
2023-02-23T05:09:22.714Z,11.80
2023-02-23T05:11:49.764Z,12.33
2023-02-23T05:14:16.464Z,12.13
2023-02-23T05:16:43.580Z,12.87
2023-02-23T05:19:10.458Z,17.27
2023-02-23T05:21:38.640Z,15.93
2023-02-23T05:24:05.850Z,12.00
2023-02-23T05:26:33.254Z,11.37
2023-02-23T05:29:00.223Z,9.63
2023-02-23T05:35:45.233Z,10.90
2023-02-23T05:38:12.235Z,10.93
2023-02-23T05:40:39.836Z,11.37
2023-02-23T05:43:06.974Z,11.77
2023-02-23T05:45:33.688Z,11.77
2023-02-23T05:48:00.665Z,11.80
2023-02-23T05:50:27.401Z,12.00
2023-02-23T05:52:54.437Z,12.90
2023-02-23T05:55:21.180Z,12.33
2023-02-23T05:57:48.180Z,12.30
2023-02-23T06:00:15.200Z,12.43
2023-02-23T06:02:42.301Z,13.43
2023-02-23T06:05:10.775Z,13.03
2023-02-23T06:07:38.126Z,12.20
2023-02-23T06:10:06.102Z,12.73
2023-02-23T06:12:33.359Z,12.73
2023-02-23T06:15:00.175Z,13.03
2023-02-23T06:17:27.212Z,13.13
2023-02-23T06:19:54.090Z,13.17
2023-02-23T06:22:21.183Z,12.77
2023-02-23T06:24:48.099Z,13.77
2023-02-23T06:27:15.267Z,13.77
2023-02-23T06:29:42.222Z,12.60
2023-02-23T06:32:09.471Z,12.20
2023-02-23T06:34:36.482Z,12.27
2023-02-23T06:37:04.043Z,11.87
2023-02-23T06:39:30.913Z,11.43
2023-02-23T06:41:58.066Z,12.17
2023-02-23T06:44:24.973Z,11.33
2023-02-23T06:46:52.148Z,13.17
2023-02-23T06:49:19.008Z,11.63
2023-02-23T06:51:46.243Z,10.87
2023-02-23T06:54:13.252Z,11.50
2023-02-23T06:56:40.388Z,10.33
2023-02-23T06:59:07.250Z,10.77
2023-02-23T07:01:34.404Z,11.07
2023-02-23T07:04:01.454Z,10.70
2023-02-23T07:06:29.235Z,10.73
2023-02-23T07:08:58.256Z,10.53
2023-02-23T07:11:25.390Z,9.97
2023-02-23T07:13:52.254Z,9.93
2023-02-23T07:16:19.420Z,9.73
2023-02-23T07:18:46.317Z,9.57
2023-02-23T07:21:13.455Z,9.23
2023-02-23T07:23:40.233Z,8.63
2023-02-23T07:26:07.307Z,10.23
2023-02-23T07:28:34.080Z,8.97
2023-02-23T07:31:01.227Z,9.40
2023-02-23T07:33:27.987Z,10.37
2023-02-23T07:35:55.101Z,9.40
2023-02-23T07:38:22.065Z,9.43
2023-02-23T07:40:53.058Z,10.03
2023-02-23T07:43:22.799Z,9.43
2023-02-23T07:45:51.617Z,9.23
2023-02-23T07:48:18.945Z,10.80
2023-02-23T07:50:46.638Z,9.17
2023-02-23T07:53:13.972Z,9.67
2023-02-23T07:55:41.163Z,9.33
2023-02-23T07:58:08.520Z,9.87
2023-02-23T08:00:38.875Z,9.80
2023-02-23T08:03:06.850Z,10.03
2023-02-23T08:05:34.304Z,9.53
2023-02-23T08:08:01.126Z,9.00
2023-02-23T08:10:28.455Z,9.47
2023-02-23T08:12:55.343Z,9.40
2023-02-23T08:15:22.586Z,9.87
2023-02-23T08:17:49.346Z,10.60
2023-02-23T08:20:16.898Z,11.00
2023-02-23T08:22:49.421Z,9.97
2023-02-23T08:25:18.417Z,10.43
2023-02-23T08:27:45.899Z,10.17
2023-02-23T08:30:14.610Z,10.60
2023-02-23T08:32:41.768Z,9.27
2023-02-23T08:35:10.147Z,10.53
2023-02-23T08:37:37.039Z,10.00
2023-02-23T08:40:04.630Z,9.93
2023-02-23T08:42:32.171Z,10.60
2023-02-23T08:45:01.402Z,10.17
2023-02-23T08:47:28.577Z,10.83
2023-02-23T08:49:55.815Z,10.73
2023-02-23T08:52:24.017Z,11.17
2023-02-23T08:54:51.124Z,11.30
2023-02-23T08:57:18.277Z,12.47
2023-02-23T08:59:45.487Z,12.23
2023-02-23T09:02:13.875Z,12.53
2023-02-23T09:04:42.089Z,11.87
2023-02-23T09:07:13.587Z,12.50
2023-02-23T09:09:41.182Z,11.43
2023-02-23T09:12:08.058Z,12.33
2023-02-23T09:14:36.131Z,11.93
2023-02-23T09:17:04.162Z,12.00
2023-02-23T09:19:31.417Z,12.27
2023-02-23T09:21:58.198Z,11.80
2023-02-23T09:24:25.284Z,11.43
2023-02-23T09:26:53.768Z,11.10
2023-02-23T09:29:21.652Z,12.77
2023-02-23T09:31:48.591Z,12.70
2023-02-23T09:34:15.725Z,12.00
2023-02-23T09:36:42.493Z,12.47
2023-02-23T09:39:09.823Z,12.10
2023-02-23T09:42:16.333Z,12.57
2023-02-23T09:45:05.134Z,12.33
2023-02-23T09:47:45.266Z,13.27
2023-02-23T09:50:18.017Z,13.17
2023-02-23T09:52:49.030Z,14.07
2023-02-23T09:55:16.676Z,14.33
2023-02-23T09:57:47.316Z,12.93
2023-02-23T10:00:19.838Z,13.37
2023-02-23T10:03:02.279Z,13.20
2023-02-23T10:05:33.054Z,12.30
2023-02-23T10:08:15.121Z,13.70
2023-02-23T10:10:49.455Z,12.60
2023-02-23T10:13:22.420Z,13.37
2023-02-23T10:16:16.418Z,13.43
2023-02-23T10:18:50.198Z,13.00
2023-02-23T10:21:26.301Z,13.17
2023-02-23T10:23:59.346Z,12.40
2023-02-23T10:26:31.964Z,13.17
2023-02-23T10:28:59.889Z,12.70
2023-02-23T10:31:34.643Z,12.90
2023-02-23T10:34:05.734Z,13.53
2023-02-23T10:36:45.843Z,13.13
2023-02-23T10:39:13.514Z,13.60
2023-02-23T10:41:42.334Z,13.20
2023-02-23T10:44:18.428Z,12.73
2023-02-23T10:46:49.578Z,12.50
2023-02-23T10:49:22.867Z,13.27
2023-02-23T10:51:52.359Z,13.50
2023-02-23T10:54:34.528Z,14.37
2023-02-23T10:57:01.958Z,12.80
2023-02-23T10:59:28.920Z,13.53
2023-02-23T11:02:02.434Z,14.43
2023-02-23T11:04:32.196Z,14.07
2023-02-23T11:07:10.119Z,14.00
2023-02-23T11:09:46.610Z,14.13
2023-02-23T11:12:40.848Z,13.23
2023-02-23T11:15:50.294Z,12.87
2023-02-23T11:18:27.591Z,13.93
2023-02-23T11:20:55.457Z,14.00
2023-02-23T11:23:31.439Z,14.23
2023-02-23T11:26:06.207Z,13.77
2023-02-23T11:28:36.963Z,13.67
2023-02-23T11:31:20.944Z,14.00
2023-02-23T11:33:50.034Z,13.93
2023-02-23T11:36:33.371Z,14.10
2023-02-23T11:39:20.590Z,13.83
2023-02-23T11:42:15.433Z,13.50
2023-02-23T11:44:42.855Z,14.13
2023-02-23T11:47:19.895Z,14.83
2023-02-23T11:49:48.566Z,14.87
2023-02-23T11:52:18.754Z,13.63
2023-02-23T11:55:02.862Z,14.10
2023-02-23T11:57:33.680Z,14.07
2023-02-23T12:00:21.347Z,13.43
2023-02-23T12:02:59.159Z,15.00
2023-02-23T12:05:29.445Z,14.27
2023-02-23T12:08:08.126Z,15.67
2023-02-23T12:10:41.379Z,13.80
2023-02-23T12:13:08.087Z,15.40
2023-02-23T12:15:50.464Z,14.18
2023-02-23T12:18:46.032Z,14.30
2023-02-23T12:21:21.875Z,14.97
2023-02-23T12:23:50.840Z,15.13
2023-02-23T12:26:23.045Z,15.90
2023-02-23T12:29:21.177Z,15.90
2023-02-23T12:32:12.853Z,14.23
2023-02-23T12:34:46.281Z,15.23
2023-02-23T12:37:39.662Z,16.20
2023-02-23T12:40:21.549Z,15.43
2023-02-23T12:43:05.762Z,16.90
2023-02-23T12:45:41.430Z,15.57
2023-02-23T12:48:18.660Z,15.40
2023-02-23T12:50:52.921Z,15.65
2023-02-23T12:53:42.814Z,15.70
2023-02-23T12:56:35.531Z,15.87
2023-02-23T12:59:14.337Z,15.90
2023-02-23T13:01:56.485Z,20.23
2023-02-23T13:04:47.105Z,17.77
2023-02-23T13:07:47.392Z,15.57
2023-02-23T13:10:26.837Z,18.23
2023-02-23T13:13:25.769Z,17.53
2023-02-23T13:16:16.707Z,17.63
2023-02-23T13:19:09.153Z,16.27
2023-02-23T13:21:46.168Z,16.83
2023-02-23T13:24:19.114Z,15.60
2023-02-23T13:27:01.170Z,17.77
2023-02-23T13:29:36.568Z,18.73
2023-02-23T13:32:06.164Z,17.10
2023-02-23T13:34:39.700Z,18.90
2023-02-23T13:37:08.591Z,18.57
2023-02-23T13:39:41.400Z,19.23
2023-02-23T13:42:19.295Z,17.40
2023-02-23T13:45:14.397Z,17.27
2023-02-23T13:48:06.257Z,18.07
2023-02-23T13:50:57.209Z,18.43
2023-02-23T13:53:39.718Z,18.37
2023-02-23T13:56:16.530Z,17.60
2023-02-23T13:59:05.755Z,18.87
2023-02-23T14:01:37.732Z,20.23
2023-02-23T14:04:15.327Z,20.17
2023-02-23T14:06:53.820Z,19.83
2023-02-23T14:09:36.610Z,19.00
2023-02-23T14:12:31.484Z,18.30
2023-02-23T14:15:28.090Z,18.87
2023-02-23T14:18:00.220Z,18.43
2023-02-23T14:20:46.300Z,18.53
2023-02-23T14:23:29.013Z,17.40
2023-02-23T14:26:17.802Z,17.23
2023-02-23T14:29:08.680Z,18.73
2023-02-23T14:31:36.187Z,18.17
2023-02-23T14:34:08.152Z,17.33
2023-02-23T14:36:38.370Z,19.77
2023-02-23T14:39:39.875Z,18.87
2023-02-23T14:42:07.320Z,18.00
2023-02-23T14:44:42.294Z,18.97
2023-02-23T14:47:13.945Z,18.63
2023-02-23T14:49:47.542Z,19.27
2023-02-23T14:52:20.824Z,18.07
2023-02-23T14:54:48.125Z,18.17
2023-02-23T14:57:21.761Z,19.70
2023-02-23T14:59:58.011Z,19.00
2023-02-23T15:02:28.044Z,19.97
2023-02-23T15:04:55.860Z,18.20
2023-02-23T15:07:39.881Z,22.57
2023-02-23T15:10:29.211Z,19.77
2023-02-23T15:12:56.771Z,20.00
2023-02-23T15:15:26.297Z,19.00
2023-02-23T15:17:58.017Z,19.83
2023-02-23T15:20:33.603Z,20.80
2023-02-23T15:23:03.522Z,19.50
2023-02-23T15:25:39.370Z,18.83
2023-02-23T15:28:25.935Z,19.10
2023-02-23T15:30:56.536Z,20.20
2023-02-23T15:33:28.576Z,19.50
2023-02-23T15:36:14.819Z,20.67
2023-02-23T15:38:50.077Z,20.70
2023-02-23T15:41:36.786Z,20.47
2023-02-23T15:44:13.693Z,20.27
2023-02-23T15:46:42.661Z,18.47
2023-02-23T15:49:14.479Z,20.70
2023-02-23T15:51:48.694Z,19.60
2023-02-23T15:54:22.210Z,20.40
2023-02-23T15:56:50.956Z,20.23
2023-02-23T15:59:26.079Z,21.27
2023-02-23T16:01:54.583Z,22.33
2023-02-23T16:04:28.625Z,20.43
2023-02-23T16:07:06.079Z,20.23
2023-02-23T16:09:34.169Z,20.37
2023-02-23T16:12:10.901Z,19.47
2023-02-23T16:14:46.448Z,19.33
2023-02-23T16:17:41.199Z,19.87
2023-02-23T16:20:14.109Z,21.00
2023-02-23T16:22:45.937Z,20.70
2023-02-23T16:25:16.729Z,20.07
2023-02-23T16:27:45.748Z,21.67
2023-02-23T16:30:43.382Z,20.37
2023-02-23T16:33:18.977Z,21.70
2023-02-23T16:35:48.896Z,21.57
2023-02-23T16:38:26.989Z,22.17
2023-02-23T16:40:54.401Z,23.53
2023-02-23T16:43:21.604Z,22.03
2023-02-23T16:45:48.932Z,23.63
2023-02-23T16:48:17.385Z,22.33
2023-02-23T16:50:45.768Z,23.07
2023-02-23T16:53:12.887Z,21.20
2023-02-23T16:55:45.755Z,22.67
2023-02-23T16:58:22.525Z,25.53
2023-02-23T17:00:51.055Z,24.33
2023-02-23T17:03:22.241Z,23.93
2023-02-23T17:05:49.549Z,23.03
2023-02-23T17:08:16.421Z,26.33
2023-02-23T17:10:50.199Z,24.57
2023-02-23T17:13:24.380Z,22.57
2023-02-23T17:15:55.044Z,23.87
2023-02-23T17:18:27.522Z,24.80
2023-02-23T17:20:56.372Z,23.70
2023-02-23T17:23:27.010Z,23.63
2023-02-23T17:25:56.085Z,23.93
2023-02-23T17:28:23.177Z,24.07
2023-02-23T17:30:50.414Z,23.27
2023-02-23T17:33:17.543Z,23.93
2023-02-23T17:35:45.367Z,24.43
2023-02-23T17:38:12.428Z,24.00
2023-02-23T17:40:39.637Z,24.37
2023-02-23T17:43:10.421Z,24.27
2023-02-23T17:45:37.416Z,23.87
2023-02-23T17:48:04.832Z,25.33
2023-02-23T17:50:32.098Z,25.30
2023-02-23T17:52:58.858Z,24.87
2023-02-23T17:55:25.934Z,24.80
2023-02-23T17:57:52.978Z,23.40
2023-02-23T18:00:20.673Z,24.23
2023-02-23T18:02:47.599Z,23.93
2023-02-23T18:05:15.669Z,23.87
2023-02-23T18:07:42.703Z,26.20
2023-02-23T18:10:10.383Z,25.20
2023-02-23T18:12:37.170Z,26.93
2023-02-23T18:15:04.721Z,25.60
2023-02-23T18:17:33.742Z,24.40
2023-02-23T18:20:00.893Z,24.57
2023-02-23T18:22:27.891Z,28.53
2023-02-23T18:24:56.625Z,27.03
2023-02-23T18:27:24.551Z,28.33
2023-02-23T18:29:51.776Z,27.27
2023-02-23T18:32:18.708Z,26.87
2023-02-23T18:34:45.923Z,26.80
2023-02-23T18:37:12.701Z,26.07
2023-02-23T18:39:39.704Z,25.67
2023-02-23T18:42:06.546Z,27.67
2023-02-23T18:44:35.269Z,29.03
2023-02-23T18:47:02.468Z,29.23
2023-02-23T18:49:29.568Z,30.60
2023-02-23T18:51:56.714Z,32.50
2023-02-23T18:54:26.001Z,34.77
2023-02-23T18:56:54.455Z,31.17
2023-02-23T18:59:21.598Z,31.77
2023-02-23T19:01:49.117Z,32.60
2023-02-23T19:04:16.229Z,33.07
2023-02-23T19:06:45.913Z,32.73
2023-02-23T19:09:14.612Z,33.30
2023-02-23T19:11:43.319Z,33.73
2023-02-23T19:14:16.371Z,37.27
2023-02-23T19:16:44.207Z,36.47
2023-02-23T19:19:11.391Z,35.13
2023-02-23T19:21:38.263Z,38.00
2023-02-23T19:24:06.171Z,38.77
2023-02-23T19:26:33.806Z,39.77
2023-02-23T19:29:00.852Z,48.17
2023-02-23T19:31:28.502Z,40.73
2023-02-23T19:33:57.251Z,40.53
2023-02-23T19:36:30.688Z,35.60
2023-02-23T19:39:05.955Z,33.40
2023-02-23T19:41:34.019Z,32.13
2023-02-23T19:44:01.929Z,33.83
2023-02-23T19:46:28.897Z,34.43
2023-02-23T19:48:56.590Z,36.20
2023-02-23T19:51:23.971Z,32.40
2023-02-23T19:53:54.835Z,32.37
2023-02-23T19:56:23.107Z,32.33
2023-02-23T19:58:50.933Z,35.10
2023-02-23T20:01:21.413Z,34.57
2023-02-23T20:03:55.443Z,35.73
2023-02-23T20:06:25.372Z,38.00
2023-02-23T20:08:55.022Z,38.13
2023-02-23T20:11:23.237Z,35.17
2023-02-23T20:13:53.626Z,38.70
2023-02-23T20:16:21.195Z,36.40
2023-02-23T20:18:48.279Z,38.80
2023-02-23T20:21:18.128Z,36.97
2023-02-23T20:23:47.120Z,36.27
2023-02-23T20:26:18.054Z,40.33
2023-02-23T20:28:45.279Z,39.57
2023-02-23T20:31:21.167Z,38.90
2023-02-23T20:33:50.277Z,38.83
2023-02-23T20:36:18.969Z,37.90
2023-02-23T20:38:45.964Z,38.80
2023-02-23T20:41:12.849Z,38.90
2023-02-23T20:43:40.326Z,37.97
2023-02-23T20:46:07.225Z,38.90
2023-02-23T20:48:35.418Z,39.97
2023-02-23T20:51:02.849Z,39.27
2023-02-23T20:53:30.188Z,39.50
2023-02-23T20:55:57.000Z,39.87
2023-02-23T20:58:25.012Z,40.57
2023-02-23T21:00:57.027Z,41.00
2023-02-23T21:03:25.414Z,40.30
2023-02-23T21:05:52.839Z,42.07
2023-02-23T21:08:21.345Z,42.80
2023-02-23T21:10:50.159Z,42.60
2023-02-23T21:13:18.564Z,44.00
2023-02-23T21:15:45.936Z,49.97
2023-02-23T21:18:13.043Z,49.03
2023-02-23T21:20:41.865Z,47.53
2023-02-23T21:23:08.861Z,48.00
2023-02-23T21:25:35.792Z,46.33
2023-02-23T21:28:02.797Z,45.67
2023-02-23T21:30:30.000Z,48.70
2023-02-23T21:32:57.658Z,45.03
2023-02-23T21:35:24.921Z,47.03
2023-02-23T21:37:52.460Z,46.93
2023-02-23T21:40:23.360Z,46.13
2023-02-23T21:42:51.168Z,45.33
2023-02-23T21:45:19.358Z,44.00
2023-02-23T21:47:47.697Z,43.63
2023-02-23T21:50:17.790Z,44.13
2023-02-23T21:52:48.487Z,46.07
2023-02-23T21:55:24.481Z,44.20
2023-02-23T21:57:52.017Z,45.07
2023-02-23T22:00:20.876Z,45.90
2023-02-23T22:02:48.725Z,46.53
2023-02-23T22:05:17.656Z,47.80
2023-02-23T22:07:50.947Z,45.20
2023-02-23T22:10:22.184Z,50.37
2023-02-23T22:12:50.448Z,49.20
2023-02-23T22:15:17.235Z,49.93
2023-02-23T22:17:44.582Z,47.73
2023-02-23T22:20:12.248Z,47.93
2023-02-23T22:22:39.514Z,48.90
2023-02-23T22:25:08.088Z,50.13
2023-02-23T22:27:35.253Z,48.07
2023-02-23T22:30:03.302Z,47.60
2023-02-23T22:32:33.481Z,46.17
2023-02-23T22:35:00.858Z,45.80
2023-02-23T22:37:31.499Z,47.93
2023-02-23T22:40:00.119Z,47.03
2023-02-23T22:42:30.396Z,46.93
2023-02-23T22:44:57.216Z,47.67
2023-02-23T22:47:24.553Z,50.10
2023-02-23T22:49:51.362Z,50.17
2023-02-23T22:52:18.401Z,50.73
2023-02-23T22:54:46.361Z,50.40
2023-02-23T22:57:13.517Z,48.97
2023-02-23T22:59:40.258Z,51.50
2023-02-23T23:02:07.306Z,51.57
2023-02-23T23:04:34.488Z,52.50
2023-02-23T23:07:01.680Z,52.47
2023-02-23T23:09:28.467Z,53.77
2023-02-23T23:11:56.758Z,54.37
2023-02-23T23:14:23.750Z,54.27
2023-02-23T23:16:50.761Z,53.60
2023-02-23T23:19:23.839Z,54.73
2023-02-23T23:21:55.281Z,55.07
2023-02-23T23:24:24.089Z,55.30
2023-02-23T23:26:55.960Z,56.80
2023-02-23T23:29:23.647Z,57.17
2023-02-23T23:31:51.665Z,55.80
2023-02-23T23:34:21.683Z,57.90
2023-02-23T23:36:49.903Z,56.67
2023-02-23T23:39:18.287Z,57.03
2023-02-23T23:41:48.133Z,59.30
2023-02-23T23:44:29.093Z,58.23
2023-02-23T23:46:56.940Z,56.83
2023-02-23T23:49:27.273Z,55.80
2023-02-23T23:51:58.964Z,58.03
2023-02-23T23:54:30.715Z,57.83
2023-02-23T23:57:02.955Z,58.70
2023-02-23T23:59:30.356Z,60.10
